Time;durP1;ratioP1;P1;durP2;ratioP2;P2;SDS_P1;SDS_P2;PMS_P1;PMS_P2;Temp;Humidity;BMP_temperature;BMP_pressure;BME280_temperature;BME280_humidity;BME280_pressure;Samples;Min_cycle;Max_cycle;Signal;HPM_P1;HPM_P2
2022/11/28 00:00:54;;;;;;;;;;;28.60;92.70;;;;;;5083000;28;20101;-58
2022/11/28 00:03:21;;;;;;;;;;;28.60;92.80;;;;;;5083605;28;19932;-55
2022/11/28 00:05:47;;;;;;;;;;;28.60;92.80;;;;;;5083200;28;24069;-56
2022/11/28 00:08:13;;;;;;;;;;;28.50;92.80;;;;;;5083448;28;19995;-57
2022/11/28 00:10:40;;;;;;;;;;;28.60;92.90;;;;;;5083261;28;19912;-55
2022/11/28 00:13:06;;;;;;;;;;;28.50;92.90;;;;;;5083450;28;19950;-53
2022/11/28 00:15:33;;;;;;;;;;;28.50;92.80;;;;;;5083172;28;19990;-53
2022/11/28 00:18:00;;;;;;;;;;;28.50;92.90;;;;;;5083489;28;19904;-52
2022/11/28 00:20:26;;;;;;;;;;;28.50;92.90;;;;;;5083322;28;19909;-53
2022/11/28 00:22:52;;;;;;;;;;;28.50;92.90;;;;;;5083011;28;19909;-55
2022/11/28 00:25:18;;;;;;;;;;;28.50;93.00;;;;;;5083096;28;19908;-53
2022/11/28 00:27:45;;;;;;;;;;;28.40;92.70;;;;;;5083603;28;20221;-55
2022/11/28 00:30:11;;;;;;;;;;;28.50;92.80;;;;;;5086550;28;20147;-61
2022/11/28 00:32:37;;;;;;;;;;;28.40;92.70;;;;;;5086775;28;19912;-58
2022/11/28 00:35:03;;;;;;;;;;;28.40;92.70;;;;;;5086867;28;19915;-52
2022/11/28 00:37:31;;;;;;;;;;;28.40;92.70;;;;;;5086174;28;19913;-52
2022/11/28 00:39:57;;;;;;;;;;;28.40;92.70;;;;;;5086243;28;19915;-53
2022/11/28 00:42:23;;;;;;;;;;;28.40;92.70;;;;;;5086321;28;19977;-56
2022/11/28 00:44:49;;;;;;;;;;;28.40;92.80;;;;;;5086696;28;19936;-53
2022/11/28 00:47:15;;;;;;;;;;;28.40;92.60;;;;;;5085955;28;19904;-52
2022/11/28 00:49:41;;;;;;;;;;;28.40;92.70;;;;;;5086837;28;19908;-52
2022/11/28 00:52:08;;;;;;;;;;;28.30;92.60;;;;;;5086267;28;19905;-57
2022/11/28 00:54:34;;;;;;;;;;;28.30;92.60;;;;;;5086912;28;19904;-60
2022/11/28 00:57:01;;;;;;;;;;;28.30;92.60;;;;;;5086883;28;20140;-56
2022/11/28 00:59:27;;;;;;;;;;;28.30;92.40;;;;;;5086788;28;25088;-52
2022/11/28 01:01:53;;;;;;;;;;;28.40;92.50;;;;;;5086238;28;19967;-52
2022/11/28 01:04:22;;;;;;;;;;;28.30;92.50;;;;;;5086836;28;19904;-51
2022/11/28 01:06:54;;;;;;;;;;;28.40;92.60;;;;;;5085943;28;19909;-57
2022/11/28 01:09:22;;;;;;;;;;;28.40;92.60;;;;;;5086365;28;19908;-56
2022/11/28 01:11:51;;;;;;;;;;;28.40;92.60;;;;;;5086385;28;19954;-50
2022/11/28 01:14:21;;;;;;;;;;;28.40;92.60;;;;;;5086959;28;19904;-52
2022/11/28 01:16:48;;;;;;;;;;;28.30;92.70;;;;;;5068297;28;19908;-50
2022/11/28 01:19:14;;;;;;;;;;;28.40;92.70;;;;;;5086448;28;19904;-63
2022/11/28 01:21:41;;;;;;;;;;;28.30;92.70;;;;;;5086610;28;24075;-52
2022/11/28 01:24:07;;;;;;;;;;;28.40;92.80;;;;;;5085752;28;19904;-50
2022/11/28 01:26:33;;;;;;;;;;;28.40;92.80;;;;;;5085507;28;24075;-51
2022/11/28 01:29:00;;;;;;;;;;;28.40;92.80;;;;;;5086217;28;19977;-55
2022/11/28 01:31:27;;;;;;;;;;;28.30;92.80;;;;;;5085204;28;24892;-56
2022/11/28 01:33:53;;;;;;;;;;;28.40;92.80;;;;;;5086009;28;19904;-53
2022/11/28 01:36:20;;;;;;;;;;;28.30;92.80;;;;;;5085576;28;19905;-53
2022/11/28 01:38:46;;;;;;;;;;;28.30;92.80;;;;;;5084813;28;24088;-52
2022/11/28 01:41:13;;;;;;;;;;;28.30;92.90;;;;;;5084341;28;20193;-57
2022/11/28 01:43:56;;;;;;;;;;;28.30;92.90;;;;;;5085273;28;19901;-56
2022/11/28 01:46:22;;;;;;;;;;;28.30;92.90;;;;;;5085074;28;19948;-53
2022/11/28 01:48:48;;;;;;;;;;;28.30;92.90;;;;;;5085184;28;20107;-52
2022/11/28 01:51:14;;;;;;;;;;;28.30;92.90;;;;;;5084665;28;19908;-49
2022/11/28 01:53:41;;;;;;;;;;;28.30;92.90;;;;;;5085269;28;20185;-50
2022/11/28 01:56:16;;;;;;;;;;;28.30;93.00;;;;;;5085068;28;19915;-50
2022/11/28 01:58:46;;;;;;;;;;;28.30;93.20;;;;;;5084898;28;24113;-50
2022/11/28 02:01:14;;;;;;;;;;;28.30;93.10;;;;;;5084516;28;19931;-50
2022/11/28 02:03:42;;;;;;;;;;;28.30;93.10;;;;;;5085184;28;19936;-53
2022/11/28 02:06:09;;;;;;;;;;;28.30;93.10;;;;;;5084665;28;19935;-55
2022/11/28 02:08:36;;;;;;;;;;;28.30;93.20;;;;;;5083044;28;20141;-52
2022/11/28 02:11:23;;;;;;;;;;;28.30;93.20;;;;;;5089151;28;19986;-52
2022/11/28 02:13:49;;;;;;;;;;;28.20;93.20;;;;;;5093469;28;19912;-53
2022/11/28 02:16:33;;;;;;;;;;;28.30;93.30;;;;;;5072727;28;19912;-54
2022/11/28 02:19:12;;;;;;;;;;;28.20;93.30;;;;;;5077796;28;20070;-56
2022/11/28 02:21:38;;;;;;;;;;;28.20;93.30;;;;;;5084226;28;19908;-53
2022/11/28 02:24:16;;;;;;;;;;;28.20;93.40;;;;;;5085641;28;19919;-55
2022/11/28 02:27:05;;;;;;;;;;;28.20;93.50;;;;;;5084748;28;20135;-52
2022/11/28 02:29:50;;;;;;;;;;;28.20;93.50;;;;;;5045630;28;20076;-52
2022/11/28 02:32:28;;;;;;;;;;;28.20;93.60;;;;;;5073875;28;19912;-54
2022/11/28 02:35:13;;;;;;;;;;;28.20;93.60;;;;;;5065087;28;19947;-49
2022/11/28 02:37:54;;;;;;;;;;;28.20;93.70;;;;;;5063765;28;19912;-53
2022/11/28 02:40:26;;;;;;;;;;;28.10;93.90;;;;;;5064378;28;20129;-55
2022/11/28 02:43:18;;;;;;;;;;;28.10;93.80;;;;;;5064556;28;20141;-55
2022/11/28 02:46:03;;;;;;;;;;;28.10;93.70;;;;;;5033687;28;19908;-54
2022/11/28 02:48:47;;;;;;;;;;;28.10;93.90;;;;;;5078462;28;19904;-55
2022/11/28 02:51:21;;;;;;;;;;;28.10;93.90;;;;;;5104108;28;19908;-51
2022/11/28 02:53:48;;;;;;;;;;;28.00;94.00;;;;;;5104990;28;19965;-51
2022/11/28 02:56:14;;;;;;;;;;;28.00;93.90;;;;;;5104495;28;19950;-51
2022/11/28 02:58:41;;;;;;;;;;;28.10;93.90;;;;;;5086149;28;24083;-52
2022/11/28 03:01:14;;;;;;;;;;;28.00;93.90;;;;;;5104793;28;20076;-54
2022/11/28 03:03:47;;;;;;;;;;;28.10;94.00;;;;;;5104160;28;19914;-52
2022/11/28 03:06:25;;;;;;;;;;;28.00;93.90;;;;;;5104427;28;19908;-53
2022/11/28 03:08:59;;;;;;;;;;;28.00;93.90;;;;;;5095180;28;20049;-55
2022/11/28 03:11:45;;;;;;;;;;;28.00;93.90;;;;;;5062324;28;19912;-55
2022/11/28 03:14:23;;;;;;;;;;;28.00;93.90;;;;;;5064257;28;19912;-53
2022/11/28 03:16:55;;;;;;;;;;;28.00;93.90;;;;;;5064181;28;19916;-54
2022/11/28 03:19:27;;;;;;;;;;;28.00;93.90;;;;;;5065076;28;24066;-52
2022/11/28 03:22:11;;;;;;;;;;;28.00;94.00;;;;;;5078196;28;19919;-53
2022/11/28 03:24:42;;;;;;;;;;;27.90;94.10;;;;;;5098954;28;19904;-58
2022/11/28 03:27:13;;;;;;;;;;;27.90;94.00;;;;;;5103997;28;19975;-59
2022/11/28 03:29:42;;;;;;;;;;;28.00;94.10;;;;;;5092686;28;19946;-52
2022/11/28 03:32:21;;;;;;;;;;;27.90;94.00;;;;;;5100361;28;19907;-52
2022/11/28 03:34:51;;;;;;;;;;;27.90;94.00;;;;;;5089904;28;19915;-55
2022/11/28 03:37:20;;;;;;;;;;;27.90;94.10;;;;;;5103524;28;20123;-56
2022/11/28 03:39:54;;;;;;;;;;;28.00;94.10;;;;;;5104079;28;19915;-50
2022/11/28 03:42:25;;;;;;;;;;;27.90;94.00;;;;;;5104474;28;20132;-53
2022/11/28 03:44:57;;;;;;;;;;;27.90;94.00;;;;;;5104439;28;19944;-54
2022/11/28 03:47:28;;;;;;;;;;;27.90;94.00;;;;;;5104740;28;19910;-54
2022/11/28 03:49:56;;;;;;;;;;;27.90;94.00;;;;;;5104395;28;19912;-53
2022/11/28 03:52:28;;;;;;;;;;;27.80;94.10;;;;;;5104088;28;19904;-54
2022/11/28 03:54:54;;;;;;;;;;;27.90;94.10;;;;;;5104349;28;19911;-51
2022/11/28 03:57:44;;;;;;;;;;;27.80;94.10;;;;;;5104269;28;19904;-54
2022/11/28 04:00:11;;;;;;;;;;;27.80;94.10;;;;;;5104375;28;19915;-52
2022/11/28 04:02:42;;;;;;;;;;;27.80;94.10;;;;;;5104565;28;19904;-51
2022/11/28 04:05:28;;;;;;;;;;;27.80;94.10;;;;;;5107897;28;19935;-51
2022/11/28 04:07:57;;;;;;;;;;;27.80;94.20;;;;;;5107960;28;19904;-54
2022/11/28 04:10:42;;;;;;;;;;;27.80;94.20;;;;;;5107671;28;19934;-52
2022/11/28 04:13:11;;;;;;;;;;;27.80;94.20;;;;;;5107923;28;20139;-51
2022/11/28 04:15:40;;;;;;;;;;;27.80;94.20;;;;;;5107969;28;20159;-55
2022/11/28 04:18:10;;;;;;;;;;;27.80;94.20;;;;;;5108084;28;19906;-52
2022/11/28 04:20:41;;;;;;;;;;;27.80;94.20;;;;;;5107748;28;19915;-51
2022/11/28 04:23:10;;;;;;;;;;;27.80;94.20;;;;;;5108411;28;19912;-55
2022/11/28 04:25:38;;;;;;;;;;;27.70;94.20;;;;;;5107681;28;19907;-54
2022/11/28 04:28:07;;;;;;;;;;;27.70;94.30;;;;;;5095714;28;19998;-55
2022/11/28 04:30:35;;;;;;;;;;;27.70;94.30;;;;;;5107021;28;19916;-52
2022/11/28 04:33:04;;;;;;;;;;;27.70;94.30;;;;;;5107647;28;20002;-58
2022/11/28 04:35:34;;;;;;;;;;;27.70;94.30;;;;;;5107561;28;19914;-51
2022/11/28 04:38:01;;;;;;;;;;;27.70;94.30;;;;;;5107573;28;19919;-57
2022/11/28 04:40:29;;;;;;;;;;;27.70;94.30;;;;;;5107504;28;24065;-53
2022/11/28 04:42:58;;;;;;;;;;;27.70;94.40;;;;;;5107315;28;19904;-53
2022/11/28 04:45:29;;;;;;;;;;;27.70;94.40;;;;;;5107171;28;24104;-51
2022/11/28 04:47:56;;;;;;;;;;;27.70;94.40;;;;;;5107511;28;20084;-55
2022/11/28 04:50:24;;;;;;;;;;;27.70;94.40;;;;;;5107014;28;19919;-56
2022/11/28 04:53:12;;;;;;;;;;;27.70;94.40;;;;;;5107118;28;19907;-54
2022/11/28 04:55:46;;;;;;;;;;;27.70;94.40;;;;;;5106419;28;19908;-58
2022/11/28 04:58:15;;;;;;;;;;;27.60;94.40;;;;;;5106980;28;19911;-55
2022/11/28 05:00:42;;;;;;;;;;;27.60;94.40;;;;;;5106301;28;20026;-51
2022/11/28 05:03:08;;;;;;;;;;;27.60;94.40;;;;;;5106342;28;19907;-57
2022/11/28 05:05:48;;;;;;;;;;;27.60;94.30;;;;;;5106429;28;19961;-53
2022/11/28 05:08:15;;;;;;;;;;;27.60;94.50;;;;;;5106195;28;25111;-54
2022/11/28 05:10:41;;;;;;;;;;;27.60;94.40;;;;;;5106054;28;19919;-54
2022/11/28 05:13:08;;;;;;;;;;;27.60;94.40;;;;;;5106463;28;19939;-53
2022/11/28 05:15:34;;;;;;;;;;;27.50;94.50;;;;;;5106242;28;24134;-52
2022/11/28 05:18:00;;;;;;;;;;;27.50;94.40;;;;;;5106473;28;20088;-53
2022/11/28 05:20:26;;;;;;;;;;;27.50;94.50;;;;;;5106250;28;20211;-54
2022/11/28 05:22:52;;;;;;;;;;;27.50;94.50;;;;;;5106160;28;19963;-54
2022/11/28 05:25:19;;;;;;;;;;;27.50;94.50;;;;;;5106094;28;20112;-54
2022/11/28 05:27:45;;;;;;;;;;;27.50;94.40;;;;;;5105996;28;20164;-55
2022/11/28 05:30:12;;;;;;;;;;;27.40;94.40;;;;;;5105595;28;19908;-55
2022/11/28 05:32:38;;;;;;;;;;;27.40;94.40;;;;;;5105870;28;19904;-59
2022/11/28 05:35:05;;;;;;;;;;;27.40;94.40;;;;;;5105898;28;24095;-58
2022/11/28 05:37:31;;;;;;;;;;;27.40;94.40;;;;;;5105490;28;24079;-57
2022/11/28 05:39:57;;;;;;;;;;;27.40;94.40;;;;;;5087795;28;20182;-54
2022/11/28 05:42:24;;;;;;;;;;;27.40;94.40;;;;;;5085197;28;20096;-59
2022/11/28 05:44:50;;;;;;;;;;;27.40;94.40;;;;;;5085351;28;19915;-59
2022/11/28 05:47:17;;;;;;;;;;;27.40;94.40;;;;;;5085385;28;19918;-52
2022/11/28 05:49:45;;;;;;;;;;;27.40;94.30;;;;;;5085568;28;19909;-59
2022/11/28 05:52:11;;;;;;;;;;;27.40;94.30;;;;;;5085422;28;19983;-55
2022/11/28 05:54:37;;;;;;;;;;;27.40;94.30;;;;;;5085969;28;19911;-53
2022/11/28 05:57:05;;;;;;;;;;;27.40;94.40;;;;;;5085194;28;19943;-58
2022/11/28 05:59:31;;;;;;;;;;;27.30;94.10;;;;;;5085425;28;19900;-56
2022/11/28 06:01:58;;;;;;;;;;;27.40;94.20;;;;;;5085007;28;19908;-57
2022/11/28 06:04:24;;;;;;;;;;;27.30;94.10;;;;;;5085696;28;20199;-53
2022/11/28 06:06:50;;;;;;;;;;;27.30;94.00;;;;;;5085063;28;24093;-57
2022/11/28 06:09:16;;;;;;;;;;;27.30;94.10;;;;;;5085374;28;19946;-52
2022/11/28 06:11:42;;;;;;;;;;;27.30;94.10;;;;;;5084928;28;19916;-53
2022/11/28 06:14:09;;;;;;;;;;;27.30;94.20;;;;;;5085559;28;19995;-55
2022/11/28 06:16:36;;;;;;;;;;;27.30;94.20;;;;;;5084528;28;20283;-52
2022/11/28 06:19:04;;;;;;;;;;;27.30;94.10;;;;;;5084930;28;19904;-53
2022/11/28 06:21:31;;;;;;;;;;;27.20;94.20;;;;;;5084722;28;19904;-55
2022/11/28 06:23:58;;;;;;;;;;;27.10;94.20;;;;;;5084709;28;19910;-54
2022/11/28 06:26:24;;;;;;;;;;;27.20;94.30;;;;;;5084071;28;19908;-49
2022/11/28 06:28:51;;;;;;;;;;;27.20;94.20;;;;;;5084874;28;19908;-54
2022/11/28 06:31:18;;;;;;;;;;;27.20;94.30;;;;;;5084131;28;19955;-56
2022/11/28 06:33:44;;;;;;;;;;;27.10;94.30;;;;;;5084774;28;19904;-54
2022/11/28 06:36:11;;;;;;;;;;;27.10;94.40;;;;;;5084486;28;19943;-51
2022/11/28 06:38:38;;;;;;;;;;;27.10;94.30;;;;;;5084286;28;24098;-54
2022/11/28 06:41:06;;;;;;;;;;;27.10;94.30;;;;;;5084387;28;19915;-52
2022/11/28 06:43:32;;;;;;;;;;;27.10;94.20;;;;;;5084613;28;19936;-55
2022/11/28 06:45:58;;;;;;;;;;;27.10;94.40;;;;;;5084163;28;24077;-55
2022/11/28 06:48:24;;;;;;;;;;;27.10;94.30;;;;;;5084240;28;19975;-57
2022/11/28 06:50:51;;;;;;;;;;;27.10;94.20;;;;;;5084249;28;20077;-57
2022/11/28 06:53:17;;;;;;;;;;;27.00;94.20;;;;;;5084102;28;19910;-55
2022/11/28 06:55:44;;;;;;;;;;;27.00;94.30;;;;;;5084509;28;19920;-57
2022/11/28 06:58:10;;;;;;;;;;;27.10;94.20;;;;;;5084270;28;19901;-53
2022/11/28 07:00:36;;;;;;;;;;;27.00;94.20;;;;;;5084080;28;20252;-54
2022/11/28 07:03:03;;;;;;;;;;;27.00;94.30;;;;;;5084136;28;20203;-53
2022/11/28 07:05:29;;;;;;;;;;;27.00;94.30;;;;;;5084063;28;24115;-53
2022/11/28 07:07:56;;;;;;;;;;;27.00;94.20;;;;;;5084086;28;19911;-54
2022/11/28 07:10:23;;;;;;;;;;;26.90;94.30;;;;;;5083782;28;20104;-54
2022/11/28 07:12:56;;;;;;;;;;;26.90;94.30;;;;;;5084023;28;19939;-58
2022/11/28 07:15:22;;;;;;;;;;;26.90;94.40;;;;;;5083690;28;19908;-58
2022/11/28 07:17:49;;;;;;;;;;;26.90;94.40;;;;;;5084011;28;20244;-52
2022/11/28 07:20:15;;;;;;;;;;;26.90;94.60;;;;;;5083692;28;19940;-55
2022/11/28 07:22:42;;;;;;;;;;;26.90;94.50;;;;;;5083855;28;19946;-50
2022/11/28 07:25:09;;;;;;;;;;;26.90;94.50;;;;;;5083901;28;19908;-53
2022/11/28 07:27:35;;;;;;;;;;;26.90;94.50;;;;;;5083801;28;19904;-50
2022/11/28 07:30:01;;;;;;;;;;;26.90;94.60;;;;;;5083873;28;24074;-50
2022/11/28 07:32:27;;;;;;;;;;;26.80;94.60;;;;;;5083563;28;20127;-50
2022/11/28 07:34:53;;;;;;;;;;;26.80;94.70;;;;;;5083773;28;19914;-52
2022/11/28 07:37:19;;;;;;;;;;;26.80;94.70;;;;;;5083748;28;19948;-55
2022/11/28 07:39:46;;;;;;;;;;;26.80;94.70;;;;;;5087624;28;19950;-50
2022/11/28 07:42:12;;;;;;;;;;;26.80;94.80;;;;;;5087730;28;19910;-50
2022/11/28 07:44:38;;;;;;;;;;;26.80;94.80;;;;;;5088590;28;19900;-56
2022/11/28 07:47:04;;;;;;;;;;;26.80;94.80;;;;;;5087724;28;20093;-58
2022/11/28 07:49:31;;;;;;;;;;;26.80;94.80;;;;;;5088246;28;24089;-50
2022/11/28 07:51:57;;;;;;;;;;;26.80;94.80;;;;;;5087678;28;20247;-57
2022/11/28 07:54:23;;;;;;;;;;;26.80;94.70;;;;;;5087953;28;20129;-51
2022/11/28 07:56:49;;;;;;;;;;;26.70;94.60;;;;;;5087394;28;19966;-52
2022/11/28 07:59:16;;;;;;;;;;;26.70;94.60;;;;;;5087704;28;19908;-54
2022/11/28 08:01:42;;;;;;;;;;;26.70;94.70;;;;;;5087367;28;20108;-51
2022/11/28 08:04:08;;;;;;;;;;;26.70;94.70;;;;;;5069523;28;25099;-57
2022/11/28 08:06:36;;;;;;;;;;;26.70;94.70;;;;;;5087314;28;19936;-51
2022/11/28 08:09:02;;;;;;;;;;;26.70;94.60;;;;;;5087249;28;19904;-53
2022/11/28 08:11:29;;;;;;;;;;;26.70;94.50;;;;;;5087285;28;19908;-52
2022/11/28 08:13:56;;;;;;;;;;;26.70;94.40;;;;;;5087538;28;20152;-51
2022/11/28 08:16:23;;;;;;;;;;;26.60;94.30;;;;;;5087156;28;20181;-54
2022/11/28 08:18:50;;;;;;;;;;;26.70;94.30;;;;;;5087398;28;25124;-53
2022/11/28 08:21:18;;;;;;;;;;;26.60;94.30;;;;;;5087066;28;19927;-51
2022/11/28 08:23:45;;;;;;;;;;;26.60;94.40;;;;;;5087236;28;24126;-52
2022/11/28 08:26:12;;;;;;;;;;;26.60;93.90;;;;;;5086903;28;19950;-55
2022/11/28 08:28:39;;;;;;;;;;;26.60;93.90;;;;;;5087144;28;20017;-53
2022/11/28 08:31:09;;;;;;;;;;;26.60;93.50;;;;;;5086889;28;19909;-51
2022/11/28 08:33:35;;;;;;;;;;;26.60;93.60;;;;;;5087132;28;20095;-52
2022/11/28 08:36:03;;;;;;;;;;;26.60;93.60;;;;;;5086705;28;19909;-60
2022/11/28 08:38:29;;;;;;;;;;;26.60;93.60;;;;;;5086710;28;19919;-52
2022/11/28 08:41:13;;;;;;;;;;;26.60;93.40;;;;;;5086718;28;20186;-52
2022/11/28 08:43:39;;;;;;;;;;;26.60;93.40;;;;;;5087070;28;19904;-51
2022/11/28 08:46:08;;;;;;;;;;;26.50;93.10;;;;;;5086291;28;24065;-51
2022/11/28 08:48:34;;;;;;;;;;;26.50;93.10;;;;;;5067955;28;19950;-51
2022/11/28 08:51:00;;;;;;;;;;;26.50;93.10;;;;;;5086510;28;20015;-52
2022/11/28 08:53:26;;;;;;;;;;;26.50;93.20;;;;;;5086562;28;19958;-51
2022/11/28 08:55:53;;;;;;;;;;;26.50;93.20;;;;;;5086156;28;19919;-51
2022/11/28 08:58:19;;;;;;;;;;;26.40;93.10;;;;;;5086647;28;19904;-52
2022/11/28 09:00:45;;;;;;;;;;;26.40;93.00;;;;;;5086067;28;19936;-51
2022/11/28 09:03:15;;;;;;;;;;;26.40;93.10;;;;;;5086149;28;19922;-49
2022/11/28 09:05:41;;;;;;;;;;;26.40;93.00;;;;;;5086305;28;19915;-51
2022/11/28 09:08:08;;;;;;;;;;;26.40;93.20;;;;;;5086164;28;19968;-51
2022/11/28 09:10:38;;;;;;;;;;;26.40;93.40;;;;;;5086011;28;24097;-51
2022/11/28 09:13:04;;;;;;;;;;;26.40;93.20;;;;;;5086217;28;19904;-51
2022/11/28 09:15:31;;;;;;;;;;;26.40;93.30;;;;;;5085832;28;20092;-54
2022/11/28 09:17:57;;;;;;;;;;;26.40;93.40;;;;;;5085882;28;19911;-51
2022/11/28 09:20:23;;;;;;;;;;;26.30;93.20;;;;;;5086161;28;19909;-49
2022/11/28 09:22:49;;;;;;;;;;;26.30;93.30;;;;;;5085874;28;20154;-50
2022/11/28 09:25:16;;;;;;;;;;;26.30;93.20;;;;;;5085898;28;19915;-52
2022/11/28 09:27:42;;;;;;;;;;;26.30;93.30;;;;;;5085615;28;19900;-50
2022/11/28 09:30:08;;;;;;;;;;;26.30;93.50;;;;;;5085453;28;19912;-55
2022/11/28 09:32:35;;;;;;;;;;;26.30;93.40;;;;;;5085760;28;19943;-52
2022/11/28 09:35:01;;;;;;;;;;;26.30;93.50;;;;;;5085459;28;20190;-51
2022/11/28 09:37:28;;;;;;;;;;;26.30;93.50;;;;;;5085510;28;19913;-52
2022/11/28 09:39:54;;;;;;;;;;;26.30;93.30;;;;;;5085774;28;20220;-51
2022/11/28 09:42:31;;;;;;;;;;;26.30;93.30;;;;;;5067228;28;19905;-55
2022/11/28 09:44:59;;;;;;;;;;;26.30;93.40;;;;;;5085281;28;19909;-55
2022/11/28 09:47:27;;;;;;;;;;;26.30;93.50;;;;;;5085397;28;19946;-55
2022/11/28 09:50:05;;;;;;;;;;;26.30;93.50;;;;;;5085535;28;19947;-57
2022/11/28 09:52:41;;;;;;;;;;;26.30;93.50;;;;;;5085127;28;19916;-51
2022/11/28 09:55:16;;;;;;;;;;;26.30;93.60;;;;;;5085495;28;24074;-53
2022/11/28 09:57:49;;;;;;;;;;;26.30;93.60;;;;;;5085076;28;19927;-50
2022/11/28 10:00:17;;;;;;;;;;;26.20;93.50;;;;;;5084403;28;19975;-53
2022/11/28 10:02:54;;;;;;;;;;;26.20;93.70;;;;;;5085279;28;19904;-55
2022/11/28 10:05:39;;;;;;;;;;;26.20;93.70;;;;;;5084925;28;24074;-53
2022/11/28 10:08:05;;;;;;;;;;;26.30;93.80;;;;;;5084896;28;19990;-56
2022/11/28 10:10:50;;;;;;;;;;;26.30;93.80;;;;;;5085149;28;19916;-51
2022/11/28 10:13:34;;;;;;;;;;;26.20;93.90;;;;;;5085095;28;20115;-51
2022/11/28 10:16:10;;;;;;;;;;;26.30;93.90;;;;;;5085227;28;20003;-57
2022/11/28 10:18:39;;;;;;;;;;;26.20;93.90;;;;;;5084960;28;19951;-52
2022/11/28 10:21:24;;;;;;;;;;;26.20;93.90;;;;;;5085006;28;19974;-50
2022/11/28 10:23:52;;;;;;;;;;;26.20;94.00;;;;;;5085126;28;19904;-51
2022/11/28 10:26:21;;;;;;;;;;;26.10;93.90;;;;;;5084890;28;19908;-51
2022/11/28 10:28:50;;;;;;;;;;;26.10;93.90;;;;;;5085084;28;20199;-56
2022/11/28 10:31:35;;;;;;;;;;;26.10;94.10;;;;;;5084512;28;19970;-49
2022/11/28 10:34:01;;;;;;;;;;;26.10;94.10;;;;;;5085234;28;20111;-53
2022/11/28 10:36:30;;;;;;;;;;;26.10;94.20;;;;;;5084557;28;19972;-59
2022/11/28 10:38:57;;;;;;;;;;;26.10;94.20;;;;;;5084864;28;20272;-52
2022/11/28 10:42:10;;;;;;;;;;;26.10;94.30;;;;;;5084720;28;19914;-51
2022/11/28 10:44:36;;;;;;;;;;;26.10;94.50;;;;;;5084946;28;19946;-54
2022/11/28 10:47:03;;;;;;;;;;;26.10;94.30;;;;;;5084408;28;19908;-51
2022/11/28 10:49:32;;;;;;;;;;;26.00;94.30;;;;;;5084805;28;19916;-55
2022/11/28 10:52:01;;;;;;;;;;;26.00;94.30;;;;;;5084732;28;20093;-54
2022/11/28 10:54:45;;;;;;;;;;;26.00;94.40;;;;;;5084729;28;20084;-60
2022/11/28 10:57:16;;;;;;;;;;;26.00;94.40;;;;;;5084657;28;19980;-52
2022/11/28 10:59:42;;;;;;;;;;;26.00;94.50;;;;;;5084598;28;19971;-52
2022/11/28 11:02:30;;;;;;;;;;;25.90;94.50;;;;;;5084541;28;19912;-53
2022/11/28 11:04:56;;;;;;;;;;;25.90;94.50;;;;;;5084114;28;19908;-53
2022/11/28 11:07:27;;;;;;;;;;;25.90;94.50;;;;;;5084263;28;20184;-54
2022/11/28 11:09:53;;;;;;;;;;;25.90;94.60;;;;;;5084188;28;19912;-52
2022/11/28 11:12:23;;;;;;;;;;;26.00;94.40;;;;;;5083864;28;19911;-52
2022/11/28 11:14:49;;;;;;;;;;;26.00;94.60;;;;;;5084427;28;19916;-56
2022/11/28 11:17:23;;;;;;;;;;;26.00;94.60;;;;;;5084277;28;19904;-52
2022/11/28 11:19:49;;;;;;;;;;;26.10;94.80;;;;;;5083722;28;19975;-53
2022/11/28 11:22:20;;;;;;;;;;;26.10;94.80;;;;;;5084137;28;19962;-64
2022/11/28 11:25:03;;;;;;;;;;;26.10;94.80;;;;;;5083879;28;19971;-56
2022/11/28 11:27:30;;;;;;;;;;;26.10;94.80;;;;;;5083987;28;19905;-57
2022/11/28 11:29:56;;;;;;;;;;;26.10;94.80;;;;;;5083894;28;19983;-54
2022/11/28 11:32:29;;;;;;;;;;;26.10;94.60;;;;;;5083902;28;19911;-55
2022/11/28 11:34:57;;;;;;;;;;;26.20;94.60;;;;;;5084186;28;19909;-55
2022/11/28 11:37:34;;;;;;;;;;;26.20;94.40;;;;;;5083574;28;19968;-57
2022/11/28 11:40:00;;;;;;;;;;;26.20;94.40;;;;;;5082237;28;19909;-52
2022/11/28 11:42:28;;;;;;;;;;;26.20;94.10;;;;;;5081856;28;20103;-60
2022/11/28 11:44:55;;;;;;;;;;;26.30;94.00;;;;;;5081973;28;19908;-57
2022/11/28 11:47:39;;;;;;;;;;;26.30;94.10;;;;;;5082245;28;19908;-56
2022/11/28 11:50:06;;;;;;;;;;;26.30;94.00;;;;;;5082024;28;19983;-52
2022/11/28 11:52:32;;;;;;;;;;;26.30;93.90;;;;;;5081966;28;20115;-53
2022/11/28 11:55:24;;;;;;;;;;;26.30;93.90;;;;;;5083450;28;19908;-53
2022/11/28 11:57:51;;;;;;;;;;;26.30;93.80;;;;;;5079196;28;19904;-54
2022/11/28 12:00:34;;;;;;;;;;;26.30;93.70;;;;;;5083554;28;19947;-51
2022/11/28 12:03:04;;;;;;;;;;;26.30;93.80;;;;;;5083704;28;19927;-53
2022/11/28 12:05:38;;;;;;;;;;;26.30;93.70;;;;;;5083775;28;19947;-53
2022/11/28 12:08:10;;;;;;;;;;;26.30;93.70;;;;;;5083545;28;20163;-51
2022/11/28 12:10:59;;;;;;;;;;;26.30;93.70;;;;;;5083418;28;19912;-51
2022/11/28 12:13:26;;;;;;;;;;;26.30;93.70;;;;;;5083641;28;19911;-58
2022/11/28 12:15:55;;;;;;;;;;;26.30;93.80;;;;;;5083625;28;19912;-57
2022/11/28 12:18:31;;;;;;;;;;;26.40;93.80;;;;;;5083529;28;19900;-54
2022/11/28 12:21:00;;;;;;;;;;;26.30;93.80;;;;;;5083872;28;19908;-55
2022/11/28 12:23:45;;;;;;;;;;;26.40;93.80;;;;;;5083950;28;19911;-55
2022/11/28 12:26:26;;;;;;;;;;;26.40;93.80;;;;;;5087111;28;19991;-53
2022/11/28 12:29:10;;;;;;;;;;;26.50;93.80;;;;;;5087361;28;19904;-52
2022/11/28 12:31:42;;;;;;;;;;;26.50;93.80;;;;;;5070792;28;19916;-52
2022/11/28 12:34:19;;;;;;;;;;;26.50;93.80;;;;;;5088464;28;19904;-54
2022/11/28 12:37:04;;;;;;;;;;;26.60;93.90;;;;;;5086847;28;19916;-52
2022/11/28 12:39:42;;;;;;;;;;;26.60;93.80;;;;;;5087253;28;19932;-54
2022/11/28 12:42:28;;;;;;;;;;;26.60;93.80;;;;;;5087070;28;19908;-57
2022/11/28 12:45:07;;;;;;;;;;;26.60;93.80;;;;;;5086663;28;19909;-54
2022/11/28 12:47:45;;;;;;;;;;;26.60;93.90;;;;;;5086641;28;19967;-50
2022/11/28 12:50:17;;;;;;;;;;;26.60;94.00;;;;;;5086434;28;19912;-56
2022/11/28 12:53:03;;;;;;;;;;;26.60;94.00;;;;;;5087311;28;20177;-55
2022/11/28 12:55:47;;;;;;;;;;;26.60;93.90;;;;;;5069345;28;19908;-52
2022/11/28 12:58:20;;;;;;;;;;;26.60;93.80;;;;;;5086786;28;19904;-53
2022/11/28 13:01:05;;;;;;;;;;;26.60;93.70;;;;;;5086513;28;19912;-52
2022/11/28 13:03:46;;;;;;;;;;;26.60;93.70;;;;;;5086642;28;19905;-52
2022/11/28 13:06:18;;;;;;;;;;;26.60;93.70;;;;;;5086487;28;19940;-52
2022/11/28 13:08:45;;;;;;;;;;;26.60;93.70;;;;;;5086355;28;19904;-51
2022/11/28 13:11:17;;;;;;;;;;;26.60;93.60;;;;;;5086361;28;19915;-52
2022/11/28 13:13:43;;;;;;;;;;;26.70;93.60;;;;;;5086370;28;19900;-53
2022/11/28 13:16:12;;;;;;;;;;;26.70;93.40;;;;;;5086157;28;19908;-55
2022/11/28 13:18:46;;;;;;;;;;;26.70;93.30;;;;;;5086231;28;19905;-53
2022/11/28 13:21:24;;;;;;;;;;;26.70;93.40;;;;;;5086096;28;20119;-54
2022/11/28 13:23:59;;;;;;;;;;;26.70;93.50;;;;;;5086230;28;19911;-54
2022/11/28 13:26:25;;;;;;;;;;;26.70;93.60;;;;;;5085791;28;19908;-53
2022/11/28 13:28:54;;;;;;;;;;;26.80;93.60;;;;;;5086402;28;20177;-53
2022/11/28 13:31:40;;;;;;;;;;;26.80;93.60;;;;;;5085956;28;19904;-58
2022/11/28 13:34:12;;;;;;;;;;;26.80;93.60;;;;;;5068936;28;19943;-53
2022/11/28 13:36:38;;;;;;;;;;;26.80;93.60;;;;;;5085400;28;19939;-53
2022/11/28 13:39:07;;;;;;;;;;;26.80;93.50;;;;;;5085981;28;20001;-55
2022/11/28 13:41:33;;;;;;;;;;;26.80;93.60;;;;;;5085864;28;19912;-53
2022/11/28 13:44:17;;;;;;;;;;;26.80;93.60;;;;;;5086040;28;19900;-57
2022/11/28 13:46:44;;;;;;;;;;;26.80;93.50;;;;;;5085653;28;19944;-55
2022/11/28 13:49:24;;;;;;;;;;;26.80;93.50;;;;;;5085516;28;19954;-55
2022/11/28 13:52:08;;;;;;;;;;;26.80;93.50;;;;;;5085875;28;19908;-56
2022/11/28 13:54:40;;;;;;;;;;;26.90;93.50;;;;;;5085985;28;20111;-52
2022/11/28 13:57:09;;;;;;;;;;;26.90;93.40;;;;;;5084989;28;20104;-53
2022/11/28 13:59:35;;;;;;;;;;;26.90;93.40;;;;;;5085764;28;19943;-54
2022/11/28 14:02:03;;;;;;;;;;;26.90;93.30;;;;;;5085656;28;20191;-61
2022/11/28 14:04:31;;;;;;;;;;;27.00;93.30;;;;;;5085772;28;19950;-56
2022/11/28 14:07:00;;;;;;;;;;;27.00;93.50;;;;;;5084909;28;19908;-54
2022/11/28 14:09:49;;;;;;;;;;;27.10;93.30;;;;;;5085591;28;19908;-53
2022/11/28 14:12:17;;;;;;;;;;;27.10;93.30;;;;;;5084730;28;19940;-52
2022/11/28 14:14:47;;;;;;;;;;;27.10;93.20;;;;;;5085481;28;19994;-52
2022/11/28 14:17:13;;;;;;;;;;;27.20;93.20;;;;;;5084680;28;19904;-54
2022/11/28 14:19:49;;;;;;;;;;;27.20;93.20;;;;;;5085293;28;19940;-57
2022/11/28 14:22:28;;;;;;;;;;;27.20;93.10;;;;;;5084833;28;19912;-56
2022/11/28 14:25:08;;;;;;;;;;;27.30;93.10;;;;;;5075049;28;19947;-52
2022/11/28 14:27:36;;;;;;;;;;;27.30;93.00;;;;;;5073288;28;19904;-51
2022/11/28 14:30:02;;;;;;;;;;;27.30;93.00;;;;;;5046681;28;24076;-53
2022/11/28 14:32:32;;;;;;;;;;;27.30;93.10;;;;;;5064576;28;19912;-55
2022/11/28 14:34:58;;;;;;;;;;;27.30;93.10;;;;;;5064833;28;19955;-55